Time;durP1;ratioP1;P1;durP2;ratioP2;P2;SDS_P1;SDS_P2;PMS_P1;PMS_P2;Temp;Humidity;BMP_temperature;BMP_pressure;BME280_temperature;BME280_humidity;BME280_pressure;Samples;Min_cycle;Max_cycle;Signal;HPM_P1;HPM_P2
2023/02/07 00:00:16;;;;;;;7.00;4.22;;;;;1.40;100406.00;;;;4920254;29;20048;-63
2023/02/07 00:02:44;;;;;;;6.00;4.10;;;;;1.50;100406.00;;;;4937009;29;20051;-63
2023/02/07 00:05:11;;;;;;;4.68;3.90;;;;;1.50;100403.00;;;;4936589;29;20056;-64
2023/02/07 00:07:39;;;;;;;9.18;4.53;;;;;1.50;100402.00;;;;4937504;29;20048;-63
2023/02/07 00:10:07;;;;;;;6.78;4.57;;;;;1.50;100399.00;;;;4936882;29;20040;-64
2023/02/07 00:12:33;;;;;;;5.05;4.05;;;;;1.50;100402.00;;;;4936870;29;20044;-63
2023/02/07 00:15:00;;;;;;;7.43;4.13;;;;;1.50;100392.00;;;;4936483;29;20051;-63
2023/02/07 00:17:30;;;;;;;5.72;3.92;;;;;1.50;100400.00;;;;4936836;29;20043;-63
2023/02/07 00:19:57;;;;;;;5.93;3.67;;;;;1.60;100400.00;;;;4936802;29;20103;-64
2023/02/07 00:22:23;;;;;;;6.18;4.00;;;;;1.70;100404.00;;;;4936938;29;20040;-64
2023/02/07 00:24:50;;;;;;;7.13;3.90;;;;;1.70;100403.00;;;;4919127;29;20055;-64
2023/02/07 00:27:17;;;;;;;4.95;4.05;;;;;1.80;100400.00;;;;4918676;29;20047;-63
2023/02/07 00:29:44;;;;;;;7.43;4.40;;;;;1.80;100395.00;;;;4919720;29;20548;-64
2023/02/07 00:32:11;;;;;;;5.32;3.88;;;;;1.90;100400.00;;;;4936729;29;20036;-63
2023/02/07 00:34:37;;;;;;;6.30;3.80;;;;;1.90;100393.00;;;;4936401;29;20409;-64
2023/02/07 00:37:05;;;;;;;5.93;3.92;;;;;1.80;100383.00;;;;4936850;29;20052;-64
2023/02/07 00:39:32;;;;;;;5.03;3.60;;;;;1.70;100391.00;;;;4919870;29;20054;-62
2023/02/07 00:41:59;;;;;;;6.20;4.28;;;;;1.60;100388.00;;;;4919799;29;20067;-62
2023/02/07 00:44:25;;;;;;;8.30;4.22;;;;;1.60;100398.00;;;;4919158;29;20154;-61
2023/02/07 00:46:52;;;;;;;6.05;4.28;;;;;1.60;100393.00;;;;4936524;29;20139;-61
2023/02/07 00:49:19;;;;;;;5.82;3.95;;;;;1.60;100388.00;;;;4936905;29;20047;-61
2023/02/07 00:51:45;;;;;;;6.75;4.55;;;;;1.60;100408.00;;;;4936569;29;20040;-62
2023/02/07 00:54:12;;;;;;;8.05;4.30;;;;;1.70;100408.00;;;;4918589;29;20048;-63
2023/02/07 00:56:38;;;;;;;5.78;4.60;;;;;1.70;100411.00;;;;4936260;29;20090;-63
2023/02/07 00:59:05;;;;;;;7.65;5.13;;;;;1.70;100414.00;;;;4936319;29;20405;-64
2023/02/07 01:01:33;;;;;;;6.72;4.57;;;;;1.70;100412.00;;;;4935911;29;20413;-63
2023/02/07 01:04:00;;;;;;;5.53;4.22;;;;;1.70;100415.00;;;;4918928;29;20056;-63
2023/02/07 01:06:29;;;;;;;7.43;4.78;;;;;1.70;100414.00;;;;4918534;29;20058;-63
2023/02/07 01:08:57;;;;;;;6.38;4.57;;;;;1.70;100419.00;;;;4936015;29;20052;-63
2023/02/07 01:11:27;;;;;;;5.20;4.15;;;;;1.70;100414.00;;;;4936000;29;20046;-63
2023/02/07 01:13:54;;;;;;;7.53;4.55;;;;;1.80;100414.00;;;;4935801;29;20048;-63
2023/02/07 01:16:27;;;;;;;5.47;3.90;;;;;1.90;100413.00;;;;4918302;29;20154;-63
2023/02/07 01:18:54;;;;;;;7.35;4.40;;;;;1.90;100432.00;;;;4936427;29;20152;-63
2023/02/07 01:21:23;;;;;;;5.55;4.38;;;;;1.90;100423.00;;;;4935616;29;20047;-63
2023/02/07 01:23:50;;;;;;;6.20;3.92;;;;;1.90;100428.00;;;;4935730;29;20094;-63
2023/02/07 01:26:17;;;;;;;5.63;4.10;;;;;1.90;100415.00;;;;4937222;29;20521;-62
2023/02/07 01:28:44;;;;;;;7.50;4.15;;;;;1.90;100407.00;;;;4934403;29;20051;-63
2023/02/07 01:31:12;;;;;;;6.18;4.15;;;;;1.90;100399.00;;;;4931616;29;20040;-62
2023/02/07 01:33:38;;;;;;;5.18;3.90;;;;;1.90;100412.00;;;;4935467;29;20111;-63
2023/02/07 01:36:15;;;;;;;4.10;3.67;;;;;1.90;100408.00;;;;4935143;29;20039;-61
2023/02/07 01:38:42;;;;;;;4.65;3.65;;;;;1.90;100402.00;;;;4918371;29;20079;-61
2023/02/07 01:41:09;;;;;;;4.32;3.67;;;;;1.80;100392.00;;;;4918531;29;20079;-61
2023/02/07 01:43:54;;;;;;;4.20;3.20;;;;;1.80;100389.00;;;;4935486;29;20048;-62
2023/02/07 01:46:20;;;;;;;4.78;4.00;;;;;1.80;100392.00;;;;4934923;29;20052;-61
2023/02/07 01:48:47;;;;;;;4.90;3.80;;;;;1.80;100393.00;;;;4935480;29;20134;-62
2023/02/07 01:51:15;;;;;;;4.63;3.33;;;;;1.80;100385.00;;;;4918056;29;20106;-62
2023/02/07 01:53:41;;;;;;;3.75;3.25;;;;;1.80;100372.00;;;;4935142;29;20091;-62
2023/02/07 01:56:12;;;;;;;5.68;3.47;;;;;1.80;100378.00;;;;4934862;29;20099;-61
2023/02/07 01:58:58;;;;;;;4.30;3.70;;;;;1.80;100376.00;;;;4918008;29;20394;-63
2023/02/07 02:01:25;;;;;;;4.10;3.13;;;;;1.80;100381.00;;;;4934979;29;20043;-62
2023/02/07 02:03:54;;;;;;;4.55;3.40;;;;;1.80;100384.00;;;;4917821;29;20086;-63
2023/02/07 02:06:24;;;;;;;3.67;3.10;;;;;1.90;100381.00;;;;4934591;29;20047;-62
2023/02/07 02:08:57;;;;;;;6.70;3.83;;;;;1.90;100373.00;;;;4935102;29;20418;-62
2023/02/07 02:11:57;;;;;;;5.55;3.95;;;;;1.90;100379.00;;;;4934852;29;20424;-62
2023/02/07 02:15:00;;;;;;;6.32;3.65;;;;;1.90;100366.00;;;;4917295;29;20047;-63
2023/02/07 02:17:49;;;;;;;5.82;3.17;;;;;1.80;100372.00;;;;4917704;29;20059;-64
2023/02/07 02:20:38;;;;;;;5.00;3.75;;;;;1.80;100383.00;;;;4934849;29;20413;-64
2023/02/07 02:23:13;;;;;;;6.47;4.30;;;;;1.70;100376.00;;;;4934566;29;20052;-64
2023/02/07 02:25:56;;;;;;;4.90;3.75;;;;;1.70;100387.00;;;;4934038;29;20059;-63
2023/02/07 02:29:10;;;;;;;5.75;3.75;;;;;1.80;100388.00;;;;4934645;29;20509;-64
2023/02/07 02:32:00;;;;;;;4.68;3.95;;;;;1.70;100396.00;;;;4894274;29;20151;-64
2023/02/07 02:34:32;;;;;;;5.32;3.90;;;;;1.80;100396.00;;;;4893744;29;20059;-64
2023/02/07 02:37:01;;;;;;;4.70;4.10;;;;;1.80;100404.00;;;;4923683;29;20060;-62
2023/02/07 02:39:39;;;;;;;4.85;4.00;;;;;1.80;100408.00;;;;4917942;29;20344;-63
2023/02/07 02:42:15;;;;;;;4.60;3.92;;;;;1.80;100393.00;;;;4934497;29;20489;-63
2023/02/07 02:44:58;;;;;;;5.10;4.05;;;;;1.80;100392.00;;;;4916818;29;20055;-63
2023/02/07 02:47:28;;;;;;;4.63;3.88;;;;;1.70;100391.00;;;;4934420;29;20062;-63
2023/02/07 02:49:55;;;;;;;5.25;4.00;;;;;1.70;100393.00;;;;4916540;29;20098;-63
2023/02/07 02:52:22;;;;;;;8.20;4.45;;;;;1.70;100394.00;;;;4917254;29;20043;-63
2023/02/07 02:54:49;;;;;;;5.60;4.40;;;;;1.70;100397.00;;;;4916668;29;20047;-64
2023/02/07 02:57:29;;;;;;;5.03;4.18;;;;;1.70;100385.00;;;;4917335;29;20452;-63
2023/02/07 03:00:23;;;;;;;5.82;4.32;;;;;1.60;100383.00;;;;4917089;29;20107;-64
2023/02/07 03:03:08;;;;;;;6.22;4.45;;;;;1.50;100367.00;;;;4917022;29;20059;-64
2023/02/07 03:06:05;;;;;;;5.53;4.13;;;;;1.50;100375.00;;;;4916434;29;20054;-64
2023/02/07 03:08:46;;;;;;;4.85;4.22;;;;;1.50;100383.00;;;;4917422;29;20417;-64
2023/02/07 03:11:16;;;;;;;5.40;4.35;;;;;1.50;100364.00;;;;4934228;29;20416;-64
2023/02/07 03:13:45;;;;;;;6.63;4.47;;;;;1.40;100374.00;;;;4917050;29;20058;-64
2023/02/07 03:16:32;;;;;;;4.55;3.97;;;;;1.40;100379.00;;;;4916610;29;20074;-63
2023/02/07 03:19:05;;;;;;;5.90;4.45;;;;;1.40;100379.00;;;;4917133;29;20058;-63
2023/02/07 03:21:37;;;;;;;5.85;4.60;;;;;1.30;100381.00;;;;4916944;29;20055;-63
2023/02/07 03:24:10;;;;;;;6.40;4.72;;;;;1.30;100386.00;;;;4933918;29;20505;-64
2023/02/07 03:26:39;;;;;;;6.20;4.60;;;;;1.30;100375.00;;;;4916812;29;20058;-64
2023/02/07 03:29:07;;;;;;;5.15;4.13;;;;;1.20;100363.00;;;;4934052;29;20039;-63
2023/02/07 03:31:38;;;;;;;6.65;4.60;;;;;1.20;100363.00;;;;4934605;29;20051;-63
2023/02/07 03:34:14;;;;;;;6.40;4.70;;;;;1.20;100371.00;;;;4916477;29;20066;-60
2023/02/07 03:36:57;;;;;;;6.40;4.80;;;;;1.20;100382.00;;;;4934121;29;20494;-63
2023/02/07 03:39:24;;;;;;;6.70;4.07;;;;;1.10;100377.00;;;;4934222;29;20078;-63
2023/02/07 03:42:05;;;;;;;6.03;4.82;;;;;1.10;100378.00;;;;4933839;29;20043;-64
2023/02/07 03:44:34;;;;;;;5.85;4.82;;;;;1.10;100366.00;;;;4934259;29;20043;-63
2023/02/07 03:47:02;;;;;;;7.20;4.60;;;;;1.00;100354.00;;;;4934538;29;20457;-63
2023/02/07 03:49:29;;;;;;;8.20;5.15;;;;;0.90;100363.00;;;;4917220;29;20413;-64
2023/02/07 03:51:55;;;;;;;5.72;4.70;;;;;0.90;100359.00;;;;4934177;29;20048;-64
2023/02/07 03:54:22;;;;;;;6.25;4.10;;;;;0.90;100359.00;;;;4916940;29;20465;-64
2023/02/07 03:56:49;;;;;;;5.78;4.63;;;;;0.90;100365.00;;;;4934311;29;20074;-63
2023/02/07 03:59:15;;;;;;;7.07;4.80;;;;;0.80;100369.00;;;;4916698;29;20055;-64
2023/02/07 04:01:42;;;;;;;6.60;4.35;;;;;0.80;100359.00;;;;4935556;29;20047;-64
2023/02/07 04:04:10;;;;;;;5.78;4.75;;;;;0.70;100363.00;;;;4937618;29;20635;-64
2023/02/07 04:06:37;;;;;;;6.72;5.10;;;;;0.70;100371.00;;;;4938207;29;20051;-63
2023/02/07 04:09:03;;;;;;;6.13;4.25;;;;;0.60;100364.00;;;;4938811;29;20131;-63
2023/02/07 04:11:30;;;;;;;7.38;4.80;;;;;0.60;100359.00;;;;4937676;29;20110;-63
2023/02/07 04:13:57;;;;;;;6.95;4.82;;;;;0.50;100353.00;;;;4937459;29;20413;-63
2023/02/07 04:16:24;;;;;;;6.68;4.95;;;;;0.50;100369.00;;;;4936959;29;20513;-64
2023/02/07 04:18:51;;;;;;;7.30;5.15;;;;;0.50;100352.00;;;;4937690;29;20075;-64
2023/02/07 04:21:17;;;;;;;6.55;4.70;;;;;0.50;100350.00;;;;4920283;29;20058;-64
2023/02/07 04:23:44;;;;;;;7.35;5.25;;;;;0.40;100357.00;;;;4937299;29;20127;-64
2023/02/07 04:26:10;;;;;;;6.60;4.55;;;;;0.40;100359.00;;;;4936950;29;20394;-64
2023/02/07 04:28:37;;;;;;;8.20;5.70;;;;;0.40;100362.00;;;;4937218;29;20091;-64
2023/02/07 04:31:03;;;;;;;7.32;5.25;;;;;0.30;100361.00;;;;4937307;29;20047;-62
2023/02/07 04:33:30;;;;;;;6.85;5.45;;;;;0.30;100351.00;;;;4937207;29;20390;-64
2023/02/07 04:35:59;;;;;;;7.93;5.53;;;;;0.30;100357.00;;;;4936690;29;20081;-64
2023/02/07 04:38:26;;;;;;;7.60;5.28;;;;;0.30;100358.00;;;;4937315;29;20044;-66
2023/02/07 04:41:02;;;;;;;7.43;5.65;;;;;0.30;100357.00;;;;4937006;29;20043;-62
2023/02/07 04:43:29;;;;;;;6.50;5.32;;;;;0.30;100359.00;;;;4937434;29;20048;-62
2023/02/07 04:45:56;;;;;;;7.82;5.75;;;;;0.30;100365.00;;;;4936458;29;20173;-65
2023/02/07 04:48:23;;;;;;;7.97;5.32;;;;;0.30;100364.00;;;;4936805;29;20131;-62
2023/02/07 04:50:50;;;;;;;8.15;6.05;;;;;0.30;100361.00;;;;4936941;29;20626;-62
2023/02/07 04:53:16;;;;;;;6.60;4.97;;;;;0.30;100371.00;;;;4936836;29;20055;-60
2023/02/07 04:55:47;;;;;;;8.18;5.50;;;;;0.30;100365.00;;;;4936335;29;20509;-63
2023/02/07 04:58:13;;;;;;;5.82;5.03;;;;;0.30;100378.00;;;;4936931;29;20047;-63
2023/02/07 05:00:42;;;;;;;19.48;12.57;;;;;0.30;100380.00;;;;4936756;29;20047;-63
2023/02/07 05:03:09;;;;;;;10.20;6.63;;;;;0.30;100377.00;;;;4936613;29;20050;-62
2023/02/07 05:05:39;;;;;;;7.45;5.63;;;;;0.30;100383.00;;;;4936516;29;20107;-63
2023/02/07 05:08:06;;;;;;;8.02;6.10;;;;;0.20;100382.00;;;;4936535;29;20047;-63
2023/02/07 05:10:33;;;;;;;7.72;5.65;;;;;0.20;100380.00;;;;4936683;29;20048;-63
2023/02/07 05:13:00;;;;;;;6.68;5.72;;;;;0.20;100393.00;;;;4935872;29;20091;-63
2023/02/07 05:15:27;;;;;;;8.75;5.90;;;;;0.10;100388.00;;;;4936072;29;20136;-63
2023/02/07 05:17:55;;;;;;;8.60;5.88;;;;;0.10;100394.00;;;;4938637;29;20104;-65
2023/02/07 05:20:23;;;;;;;11.10;6.90;;;;;0.00;100392.00;;;;4938921;29;20460;-64
2023/02/07 05:22:49;;;;;;;7.65;6.05;;;;;0.00;100395.00;;;;4939277;29;20048;-63
2023/02/07 05:25:16;;;;;;;10.43;6.43;;;;;0.00;100390.00;;;;4920568;29;20043;-64
2023/02/07 05:27:42;;;;;;;9.05;6.82;;;;;-0.10;100391.00;;;;4936381;29;20048;-64
2023/02/07 05:30:09;;;;;;;8.25;6.32;;;;;-0.10;100389.00;;;;4936575;29;20040;-65
2023/02/07 05:35:21;;;;;;;9.07;6.68;;;;;-0.10;100386.00;;;;4935600;29;20044;-62
2023/02/07 05:37:48;;;;;;;9.30;7.35;;;;;-0.20;100389.00;;;;4936235;29;20390;-63
2023/02/07 05:40:14;;;;;;;10.52;7.30;;;;;-0.20;100397.00;;;;4936418;29;20421;-64
2023/02/07 05:42:41;;;;;;;9.27;6.50;;;;;-0.20;100393.00;;;;4935743;29;20051;-64
2023/02/07 05:45:08;;;;;;;10.18;7.28;;;;;-0.20;100400.00;;;;4935408;29;20177;-64
2023/02/07 05:47:34;;;;;;;10.80;6.50;;;;;-0.30;100388.00;;;;4935817;29;20052;-64
2023/02/07 05:50:01;;;;;;;12.07;7.18;;;;;-0.30;100393.00;;;;4935799;29;20043;-64
2023/02/07 05:52:27;;;;;;;8.32;6.55;;;;;-0.30;100393.00;;;;4935788;29;20390;-64
2023/02/07 05:54:54;;;;;;;10.27;7.35;;;;;-0.30;100397.00;;;;4935268;29;20058;-63
2023/02/07 05:57:21;;;;;;;10.57;6.97;;;;;-0.30;100398.00;;;;4918795;29;20054;-64
2023/02/07 05:59:47;;;;;;;9.48;6.45;;;;;-0.40;100397.00;;;;4918557;29;20099;-64
2023/02/07 06:02:14;;;;;;;10.57;6.75;;;;;-0.40;100402.00;;;;4918542;29;20040;-64
2023/02/07 06:04:40;;;;;;;10.43;7.18;;;;;-0.40;100398.00;;;;4935112;29;20043;-63
2023/02/07 06:07:07;;;;;;;11.13;7.13;;;;;-0.40;100410.00;;;;4935808;29;20531;-64
2023/02/07 06:09:33;;;;;;;10.10;7.22;;;;;-0.40;100409.00;;;;4918656;29;20497;-65
2023/02/07 06:12:00;;;;;;;13.60;7.47;;;;;-0.40;100416.00;;;;4935452;29;20036;-64
2023/02/07 06:14:30;;;;;;;12.38;7.80;;;;;-0.40;100422.00;;;;4934832;29;20051;-64
2023/02/07 06:16:56;;;;;;;10.65;7.40;;;;;-0.40;100418.00;;;;4935363;29;20195;-65
2023/02/07 06:19:23;;;;;;;12.50;7.68;;;;;-0.40;100417.00;;;;4935607;29;20052;-64
2023/02/07 06:21:49;;;;;;;13.07;7.72;;;;;-0.50;100407.00;;;;4935521;29;20457;-63
2023/02/07 06:24:19;;;;;;;11.70;7.72;;;;;-0.50;100412.00;;;;4934722;29;20047;-63
2023/02/07 06:26:45;;;;;;;12.27;8.10;;;;;-0.50;100417.00;;;;4935037;29;20044;-63
2023/02/07 06:29:12;;;;;;;11.82;8.02;;;;;-0.60;100421.00;;;;4935056;29;20047;-63
2023/02/07 06:31:39;;;;;;;15.10;7.50;;;;;-0.60;100423.00;;;;4918374;29;20423;-63
2023/02/07 06:34:06;;;;;;;13.25;8.88;;;;;-0.60;100415.00;;;;4934560;29;20412;-61
2023/02/07 06:36:33;;;;;;;12.02;8.57;;;;;-0.60;100417.00;;;;4918018;29;20051;-65
2023/02/07 06:38:59;;;;;;;11.18;8.57;;;;;-0.60;100419.00;;;;4917919;29;20055;-62
2023/02/07 06:41:28;;;;;;;12.43;7.95;;;;;-0.60;100421.00;;;;4934969;29;20457;-64
2023/02/07 06:43:55;;;;;;;16.15;9.52;;;;;-0.70;100407.00;;;;4934876;29;20047;-64
2023/02/07 06:46:23;;;;;;;12.27;9.13;;;;;-0.70;100406.00;;;;4934409;29;20559;-64
2023/02/07 06:48:50;;;;;;;12.70;8.85;;;;;-0.70;100403.00;;;;4917931;29;20048;-63
2023/02/07 06:51:16;;;;;;;13.93;8.93;;;;;-0.70;100407.00;;;;4935038;29;20051;-64
2023/02/07 06:53:45;;;;;;;14.15;8.90;;;;;-0.70;100406.00;;;;4934929;29;20044;-64
2023/02/07 06:56:12;;;;;;;12.18;8.95;;;;;-0.70;100392.00;;;;4917430;29;20044;-63
2023/02/07 06:58:39;;;;;;;18.48;10.02;;;;;-0.70;100390.00;;;;4917805;29;20107;-65
2023/02/07 07:01:05;;;;;;;13.88;8.80;;;;;-0.70;100401.00;;;;4934914;29;20394;-65
2023/02/07 07:03:34;;;;;;;14.65;9.85;;;;;-0.70;100391.00;;;;4934980;29;20051;-61
2023/02/07 07:06:01;;;;;;;13.85;9.15;;;;;-0.80;100389.00;;;;4935141;29;20482;-61
2023/02/07 07:08:28;;;;;;;16.60;10.13;;;;;-0.70;100392.00;;;;4939483;29;20051;-62
2023/02/07 07:10:56;;;;;;;15.98;10.68;;;;;-0.70;100390.00;;;;4938365;29;20044;-62
2023/02/07 07:13:22;;;;;;;18.00;9.35;;;;;-0.70;100398.00;;;;4939011;29;20056;-62
2023/02/07 07:15:49;;;;;;;15.73;9.40;;;;;-0.70;100398.00;;;;4922950;29;20383;-62
2023/02/07 07:18:16;;;;;;;13.48;8.65;;;;;-0.70;100394.00;;;;4939273;29;20043;-63
2023/02/07 07:20:44;;;;;;;13.73;9.93;;;;;-0.70;100400.00;;;;4923436;29;20048;-63
2023/02/07 07:23:11;;;;;;;15.30;9.52;;;;;-0.60;100414.00;;;;4939671;29;20036;-63
2023/02/07 07:25:37;;;;;;;14.00;9.38;;;;;-0.60;100410.00;;;;4938655;29;20044;-63
2023/02/07 07:28:04;;;;;;;15.25;8.60;;;;;-0.60;100419.00;;;;4937779;29;20051;-63
2023/02/07 07:30:31;;;;;;;13.70;9.30;;;;;-0.60;100421.00;;;;4937873;29;20079;-64
2023/02/07 07:32:57;;;;;;;17.25;9.63;;;;;-0.50;100418.00;;;;4936485;29;20048;-64
2023/02/07 07:35:25;;;;;;;14.95;9.63;;;;;-0.50;100426.00;;;;4934202;29;20103;-62
2023/02/07 07:37:51;;;;;;;12.15;9.13;;;;;-0.50;100439.00;;;;4937268;29;20048;-62
2023/02/07 07:40:18;;;;;;;13.82;9.57;;;;;-0.40;100444.00;;;;4921068;29;20138;-62
2023/02/07 07:42:45;;;;;;;14.20;9.20;;;;;-0.40;100439.00;;;;4938093;29;20047;-63
2023/02/07 07:45:19;;;;;;;18.52;10.07;;;;;-0.40;100458.00;;;;4920486;29;20528;-61
2023/02/07 07:47:46;;;;;;;13.45;9.48;;;;;-0.30;100461.00;;;;4921421;29;20048;-63
2023/02/07 07:50:13;;;;;;;16.45;9.73;;;;;-0.20;100468.00;;;;4938083;29;20412;-63
2023/02/07 07:52:41;;;;;;;15.98;9.57;;;;;-0.20;100475.00;;;;4920774;29;20409;-63
2023/02/07 07:55:08;;;;;;;13.50;8.85;;;;;-0.20;100471.00;;;;4937467;29;20405;-63
2023/02/07 07:57:35;;;;;;;16.40;8.98;;;;;-0.10;100468.00;;;;4937960;29;20532;-64
2023/02/07 08:00:03;;;;;;;24.08;10.45;;;;;-0.10;100470.00;;;;4937982;29;20051;-64
2023/02/07 08:02:38;;;;;;;15.75;10.10;;;;;-0.10;100472.00;;;;4922078;29;20115;-64
2023/02/07 08:05:05;;;;;;;14.35;9.48;;;;;-0.10;100470.00;;;;4937502;29;20127;-64
2023/02/07 08:07:31;;;;;;;15.38;10.40;;;;;0.00;100476.00;;;;4937723;29;20051;-64
2023/02/07 08:09:58;;;;;;;15.90;10.45;;;;;0.00;100471.00;;;;4937566;29;20047;-64
2023/02/07 08:12:24;;;;;;;17.98;10.63;;;;;0.00;100469.00;;;;4937535;29;20051;-64
2023/02/07 08:14:51;;;;;;;14.65;10.23;;;;;0.00;100473.00;;;;4936967;29;20047;-64
2023/02/07 08:17:17;;;;;;;18.58;11.25;;;;;0.20;100483.00;;;;4937551;29;20051;-64
2023/02/07 08:19:44;;;;;;;15.40;10.38;;;;;0.20;100482.00;;;;4937481;29;20529;-64
2023/02/07 08:22:13;;;;;;;17.85;10.45;;;;;0.30;100494.00;;;;4937310;29;20055;-64
2023/02/07 08:24:40;;;;;;;14.38;9.95;;;;;0.30;100484.00;;;;4937153;29;20046;-64
2023/02/07 08:27:07;;;;;;;13.82;9.63;;;;;0.40;100484.00;;;;4937847;29;20044;-62
2023/02/07 08:29:34;;;;;;;15.75;9.55;;;;;0.40;100495.00;;;;4921145;29;20039;-63
2023/02/07 08:32:00;;;;;;;13.00;10.00;;;;;0.40;100496.00;;;;4938199;29;20043;-63
2023/02/07 08:34:27;;;;;;;18.58;10.25;;;;;0.50;100502.00;;;;4937109;29;20091;-64
2023/02/07 08:36:54;;;;;;;17.65;10.25;;;;;0.50;100506.00;;;;4937380;29;20527;-64
2023/02/07 08:39:20;;;;;;;12.15;9.10;;;;;0.50;100503.00;;;;4937224;29;20103;-64
2023/02/07 08:41:47;;;;;;;13.05;9.15;;;;;0.60;100519.00;;;;4937027;29;20047;-64
2023/02/07 08:44:13;;;;;;;16.25;9.98;;;;;0.60;100511.00;;;;4936543;29;20458;-62
2023/02/07 08:46:40;;;;;;;13.52;9.93;;;;;0.60;100519.00;;;;4920082;29;20051;-63
2023/02/07 08:49:06;;;;;;;14.95;9.80;;;;;0.70;100517.00;;;;4935678;29;20421;-63
2023/02/07 08:51:33;;;;;;;16.88;10.93;;;;;0.70;100521.00;;;;4919709;29;20336;-64
2023/02/07 08:53:59;;;;;;;15.02;9.98;;;;;0.80;100520.00;;;;4936650;29;20047;-64
2023/02/07 08:56:26;;;;;;;17.35;10.95;;;;;0.80;100529.00;;;;4936308;29;20047;-63
2023/02/07 08:58:52;;;;;;;14.10;10.00;;;;;0.90;100526.00;;;;4936675;29;20130;-61
2023/02/07 09:01:19;;;;;;;17.10;10.02;;;;;1.00;100539.00;;;;4919749;29;20052;-62
2023/02/07 09:03:46;;;;;;;17.80;10.88;;;;;1.00;100533.00;;;;4919642;29;20036;-62
2023/02/07 09:06:12;;;;;;;14.15;9.65;;;;;1.10;100530.00;;;;4919662;29;20047;-62
2023/02/07 09:08:39;;;;;;;14.48;10.20;;;;;1.10;100532.00;;;;4942290;29;20044;-63
2023/02/07 09:11:06;;;;;;;15.82;9.73;;;;;1.10;100535.00;;;;4938457;29;20056;-64
2023/02/07 09:13:35;;;;;;;13.98;10.25;;;;;1.20;100536.00;;;;4936937;29;20046;-64
2023/02/07 09:16:02;;;;;;;16.50;11.15;;;;;1.30;100547.00;;;;4936224;29;20062;-61
2023/02/07 09:18:29;;;;;;;19.10;13.07;;;;;1.40;100545.00;;;;4936723;29;20050;-62
2023/02/07 09:20:56;;;;;;;19.30;12.50;;;;;1.40;100543.00;;;;4919413;29;20154;-62
2023/02/07 09:23:23;;;;;;;22.75;11.88;;;;;1.50;100555.00;;;;4936355;29;20412;-62
2023/02/07 09:25:51;;;;;;;20.15;11.75;;;;;1.60;100556.00;;;;4936074;29;20044;-62
2023/02/07 09:28:21;;;;;;;28.15;11.52;;;;;1.60;100551.00;;;;4919809;29;20062;-63
2023/02/07 09:30:47;;;;;;;19.38;11.45;;;;;1.60;100549.00;;;;4936263;29;20110;-62
2023/02/07 09:33:15;;;;;;;15.68;9.32;;;;;1.60;100557.00;;;;4936355;29;20048;-63
2023/02/07 09:35:47;;;;;;;14.77;9.65;;;;;1.60;100567.00;;;;4918584;29;20569;-64
2023/02/07 09:38:19;;;;;;;12.82;9.23;;;;;1.70;100561.00;;;;4936156;29;20051;-64
2023/02/07 09:40:49;;;;;;;15.18;9.48;;;;;1.70;100553.00;;;;4919158;29;20103;-64
2023/02/07 09:43:31;;;;;;;12.93;9.18;;;;;1.70;100548.00;;;;4935991;29;20046;-66
2023/02/07 09:46:14;;;;;;;15.50;10.15;;;;;1.70;100543.00;;;;4935491;29;20063;-63
2023/02/07 09:49:03;;;;;;;13.02;9.65;;;;;1.80;100540.00;;;;4935875;29;20047;-65
2023/02/07 09:51:33;;;;;;;15.90;10.15;;;;;1.90;100534.00;;;;4935930;29;20048;-63
2023/02/07 09:54:06;;;;;;;14.60;9.80;;;;;1.90;100528.00;;;;4935835;29;20421;-64
2023/02/07 09:56:34;;;;;;;14.77;9.82;;;;;1.90;100535.00;;;;4935754;29;20084;-63
2023/02/07 09:59:46;;;;;;;14.70;10.13;;;;;2.00;100530.00;;;;4936008;29;20058;-64
2023/02/07 10:02:31;;;;;;;14.20;9.77;;;;;2.10;100530.00;;;;4907221;29;20441;-62
2023/02/07 10:05:01;;;;;;;;;;;;;2.30;100529.00;;;;4935587;29;20044;-64
2023/02/07 10:07:28;;;;;;;15.80;9.88;;;;;2.30;100520.00;;;;4918610;29;19922;-62
2023/02/07 10:09:55;;;;;;;38.08;18.10;;;;;2.30;100539.00;;;;4935687;29;20047;-63
2023/02/07 10:12:30;;;;;;;19.75;10.23;;;;;2.30;100527.00;;;;4935375;29;20051;-63
2023/02/07 10:15:07;;;;;;;14.57;9.90;;;;;2.30;100523.00;;;;4935012;29;20044;-60
2023/02/07 10:17:36;;;;;;;17.75;9.93;;;;;2.40;100515.00;;;;4936666;29;20043;-61
2023/02/07 10:20:18;;;;;;;14.65;9.63;;;;;2.50;100516.00;;;;4935761;29;20102;-60
2023/02/07 10:23:00;;;;;;;14.20;9.85;;;;;2.50;100522.00;;;;4938333;29;20111;-63
2023/02/07 10:26:02;;;;;;;13.65;9.60;;;;;2.50;100530.00;;;;4920013;29;20131;-63
2023/02/07 10:28:47;;;;;;;13.57;9.88;;;;;2.50;100533.00;;;;4896550;29;20096;-63
2023/02/07 10:31:16;;;;;;;17.15;10.48;;;;;2.50;100531.00;;;;4918224;29;20056;-62
2023/02/07 10:33:48;;;;;;;12.88;9.38;;;;;2.60;100525.00;;;;4937780;29;20108;-63
2023/02/07 10:36:15;;;;;;;13.85;8.82;;;;;2.70;100548.00;;;;4937293;29;20070;-64
2023/02/07 10:39:21;;;;;;;14.32;9.73;;;;;2.70;100530.00;;;;4921131;29;20138;-62
2023/02/07 10:41:48;;;;;;;13.23;9.50;;;;;2.70;100536.00;;;;4938198;29;20055;-63
2023/02/07 10:44:19;;;;;;;15.63;9.82;;;;;2.70;100525.00;;;;4938096;29;20505;-62
2023/02/07 10:46:52;;;;;;;18.55;10.38;;;;;2.90;100532.00;;;;4938479;29;20075;-63
2023/02/07 10:49:21;;;;;;;15.15;9.20;;;;;3.00;100527.00;;;;4937779;29;20067;-63
2023/02/07 10:51:56;;;;;;;15.38;10.07;;;;;3.00;100522.00;;;;4938037;29;20043;-63
2023/02/07 10:54:23;;;;;;;13.98;9.27;;;;;3.00;100532.00;;;;4937016;29;20405;-63
2023/02/07 10:56:54;;;;;;;17.05;10.15;;;;;3.10;100531.00;;;;4938032;29;20059;-62
2023/02/07 10:59:44;;;;;;;16.27;9.68;;;;;3.10;100522.00;;;;4939439;29;20048;-63
2023/02/07 11:02:33;;;;;;;14.10;9.13;;;;;3.20;100507.00;;;;4939787;29;20089;-63
2023/02/07 11:05:25;;;;;;;16.73;9.48;;;;;3.30;100502.00;;;;4939476;29;20047;-61
2023/02/07 11:07:58;;;;;;;13.63;9.02;;;;;3.50;100498.00;;;;4939258;29;20508;-61
2023/02/07 11:10:36;;;;;;;16.70;9.77;;;;;3.50;100508.00;;;;4942695;29;20485;-63
2023/02/07 11:13:10;;;;;;;15.48;9.68;;;;;3.50;100499.00;;;;4929015;29;20054;-62
2023/02/07 11:15:50;;;;;;;13.85;9.18;;;;;3.50;100492.00;;;;4928156;29;20556;-63
2023/02/07 11:18:39;;;;;;;13.65;9.48;;;;;3.50;100497.00;;;;4925387;29;20056;-63
2023/02/07 11:21:37;;;;;;;13.70;9.40;;;;;3.50;100493.00;;;;4942612;29;20071;-62
2023/02/07 11:24:06;;;;;;;11.00;8.30;;;;;3.50;100495.00;;;;4942992;29;20051;-62
2023/02/07 11:26:56;;;;;;;13.50;9.07;;;;;3.60;100493.00;;;;4925935;29;20528;-64
2023/02/07 11:29:24;;;;;;;16.95;9.77;;;;;3.60;100479.00;;;;4943085;29;20457;-63
2023/02/07 11:31:56;;;;;;;12.23;9.10;;;;;3.70;100485.00;;;;4943104;29;20066;-63
2023/02/07 11:35:04;;;;;;;17.00;10.07;;;;;3.70;100482.00;;;;4941595;29;20044;-63
2023/02/07 11:37:33;;;;;;;14.35;9.73;;;;;3.70;100482.00;;;;4925504;29;20047;-64
2023/02/07 11:40:18;;;;;;;13.90;9.90;;;;;3.70;100488.00;;;;4942854;29;20050;-64
2023/02/07 11:42:55;;;;;;;12.55;9.32;;;;;3.80;100485.00;;;;4939313;29;20139;-64
2023/02/07 11:45:22;;;;;;;17.73;10.07;;;;;3.90;100498.00;;;;4938784;29;20051;-63
2023/02/07 11:47:54;;;;;;;14.25;9.27;;;;;3.80;100482.00;;;;4938180;29;20409;-63
2023/02/07 11:50:25;;;;;;;12.50;9.77;;;;;3.90;100487.00;;;;4938313;29;20514;-63
2023/02/07 11:52:57;;;;;;;14.77;10.00;;;;;4.00;100475.00;;;;4938277;29;20043;-62
2023/02/07 11:55:39;;;;;;;12.38;10.10;;;;;3.90;100483.00;;;;4937748;29;20449;-63
2023/02/07 11:58:16;;;;;;;12.25;9.27;;;;;4.00;100478.00;;;;4921159;29;20497;-63
2023/02/07 12:00:44;;;;;;;17.35;10.02;;;;;4.00;100476.00;;;;4937983;29;20465;-63
2023/02/07 12:03:40;;;;;;;13.07;8.68;;;;;4.00;100477.00;;;;4938122;29;20375;-63
2023/02/07 12:06:13;;;;;;;13.88;9.95;;;;;4.10;100476.00;;;;4934411;29;20469;-63
2023/02/07 12:08:40;;;;;;;12.88;9.32;;;;;4.20;100476.00;;;;4937914;29;20047;-64
2023/02/07 12:11:14;;;;;;;15.13;10.48;;;;;4.20;100476.00;;;;4920868;29;20115;-62
2023/02/07 12:13:41;;;;;;;;;;;;;4.20;100479.00;;;;4938482;29;20070;-63
2023/02/07 12:16:21;;;;;;;13.20;8.75;;;;;4.20;100476.00;;;;4937511;29;19942;-63
2023/02/07 12:18:54;;;;;;;12.43;8.50;;;;;4.20;100476.00;;;;4937648;29;20050;-62
2023/02/07 12:21:32;;;;;;;15.48;9.32;;;;;4.20;100486.00;;;;4937523;29;20468;-63
2023/02/07 12:24:03;;;;;;;12.23;8.68;;;;;4.30;100481.00;;;;4937458;29;20075;-63
2023/02/07 12:26:36;;;;;;;13.55;9.18;;;;;4.30;100481.00;;;;4937101;29;20052;-63
2023/02/07 12:29:16;;;;;;;11.65;9.57;;;;;4.30;100477.00;;;;4937724;29;20450;-62